createdAt,value
2017-12-02T00:00:36.307Z,17.50
2017-12-02T00:01:41.253Z,17.50
2017-12-02T00:02:46.046Z,17.50
2017-12-02T00:03:50.632Z,17.50
2017-12-02T00:04:55.342Z,17.50
2017-12-02T00:06:00.260Z,17.50
2017-12-02T00:07:04.947Z,17.50
2017-12-02T00:08:09.837Z,17.50
2017-12-02T00:09:14.821Z,17.50
2017-12-02T00:10:20.217Z,17.50
2017-12-02T00:11:25.305Z,17.50
2017-12-02T00:12:29.952Z,17.50
2017-12-02T00:13:34.911Z,17.50
2017-12-02T00:14:40.079Z,17.50
2017-12-02T00:15:45.266Z,17.50
2017-12-02T00:16:50.280Z,17.50
2017-12-02T00:17:55.384Z,17.50
2017-12-02T00:19:00.402Z,17.60
2017-12-02T00:20:05.682Z,17.60
2017-12-02T00:21:11.287Z,17.50
2017-12-02T00:22:16.372Z,17.50
2017-12-02T00:23:21.142Z,17.60
2017-12-02T00:24:26.747Z,17.50
2017-12-02T00:25:32.031Z,17.50
2017-12-02T00:26:37.321Z,17.50
2017-12-02T00:27:42.824Z,17.50
2017-12-02T00:28:47.433Z,17.50
2017-12-02T00:29:52.139Z,17.50
2017-12-02T00:30:56.758Z,17.50
2017-12-02T00:32:01.523Z,17.50
2017-12-02T00:33:06.294Z,17.50
2017-12-02T00:34:10.904Z,17.50
2017-12-02T00:35:15.760Z,17.50
2017-12-02T00:36:20.519Z,17.50
2017-12-02T00:37:25.429Z,17.50
2017-12-02T00:38:30.058Z,17.50
2017-12-02T00:39:34.747Z,17.50
2017-12-02T00:40:39.515Z,17.50
2017-12-02T00:41:44.457Z,17.50
2017-12-02T00:42:49.249Z,17.50
2017-12-02T00:43:53.807Z,17.50
2017-12-02T00:44:58.489Z,17.50
2017-12-02T00:46:03.302Z,17.50
2017-12-02T00:47:08.082Z,17.50
2017-12-02T00:48:12.949Z,17.50
2017-12-02T00:49:17.548Z,17.50
2017-12-02T00:50:22.480Z,17.50
2017-12-02T00:51:27.398Z,17.50
2017-12-02T00:52:32.690Z,17.50
2017-12-02T00:53:37.441Z,17.50
2017-12-02T00:54:42.191Z,17.50
2017-12-02T00:55:46.794Z,17.50
2017-12-02T00:56:51.467Z,17.50
2017-12-02T00:57:56.194Z,17.50
2017-12-02T00:59:00.778Z,17.50
2017-12-02T01:00:05.585Z,17.50
2017-12-02T01:01:10.345Z,17.50
2017-12-02T01:02:15.075Z,17.50
2017-12-02T01:03:19.674Z,17.50
2017-12-02T01:04:24.514Z,17.50
2017-12-02T01:05:29.240Z,17.50
2017-12-02T01:06:33.863Z,17.50
2017-12-02T01:07:38.558Z,17.50
2017-12-02T01:08:43.280Z,17.50
2017-12-02T01:09:48.056Z,17.50
2017-12-02T01:10:52.785Z,17.50
2017-12-02T01:11:57.376Z,17.50
2017-12-02T01:13:02.178Z,17.50
2017-12-02T01:14:06.805Z,17.50
2017-12-02T01:15:11.478Z,17.50
2017-12-02T01:16:16.274Z,17.50
2017-12-02T01:17:20.988Z,17.50
2017-12-02T01:18:25.675Z,17.50
2017-12-02T01:19:30.212Z,17.50
2017-12-02T01:20:35.037Z,17.50
2017-12-02T01:21:39.692Z,17.50
2017-12-02T01:22:44.368Z,17.40
2017-12-02T01:23:48.924Z,17.50
2017-12-02T01:24:53.660Z,17.50
2017-12-02T01:25:58.243Z,17.50
2017-12-02T01:27:02.957Z,17.50
2017-12-02T01:28:07.690Z,17.50
2017-12-02T01:29:12.378Z,17.50
2017-12-02T01:30:17.067Z,17.50
2017-12-02T01:31:21.682Z,17.50
2017-12-02T01:32:26.530Z,17.40
2017-12-02T01:33:31.297Z,17.40
2017-12-02T01:34:35.835Z,17.50
2017-12-02T01:35:40.376Z,17.50
2017-12-02T01:36:45.244Z,17.50
2017-12-02T01:37:49.826Z,17.50
2017-12-02T01:38:54.607Z,17.50
2017-12-02T01:39:59.334Z,17.50
2017-12-02T01:41:03.949Z,17.50
2017-12-02T01:42:08.518Z,17.50
2017-12-02T01:43:13.224Z,17.40
2017-12-02T01:44:17.943Z,17.40
2017-12-02T01:45:22.570Z,17.40
2017-12-02T01:46:27.185Z,17.40
2017-12-02T01:47:31.771Z,17.40
2017-12-02T01:48:36.358Z,17.40
2017-12-02T01:49:41.224Z,17.40
2017-12-02T01:50:45.965Z,17.50
2017-12-02T01:51:50.538Z,17.50
2017-12-02T01:52:55.228Z,17.50
2017-12-02T01:53:59.899Z,17.50
2017-12-02T01:55:04.443Z,17.50
2017-12-02T01:56:09.104Z,17.50
2017-12-02T01:57:13.759Z,17.50
2017-12-02T01:58:18.574Z,17.50
2017-12-02T01:59:23.160Z,17.40
2017-12-02T02:00:28.134Z,17.50
2017-12-02T02:01:32.840Z,17.50
2017-12-02T02:02:37.548Z,17.50
2017-12-02T02:03:42.267Z,17.50
2017-12-02T02:04:46.938Z,17.50
2017-12-02T02:05:51.613Z,17.40
2017-12-02T02:06:56.293Z,17.50
2017-12-02T02:08:01.113Z,17.40
2017-12-02T02:09:05.759Z,17.50
2017-12-02T02:10:10.480Z,17.40
2017-12-02T02:11:15.279Z,17.40
2017-12-02T02:12:20.078Z,17.40
2017-12-02T02:13:24.854Z,17.40
2017-12-02T02:14:29.637Z,17.40
2017-12-02T02:15:34.345Z,17.40
2017-12-02T02:16:39.425Z,17.40
2017-12-02T02:17:44.105Z,17.40
2017-12-02T02:18:48.805Z,17.40
2017-12-02T02:19:53.385Z,17.40
2017-12-02T02:20:57.893Z,17.40
2017-12-02T02:22:02.672Z,17.40
2017-12-02T02:23:07.373Z,17.40
2017-12-02T02:24:11.863Z,17.40
2017-12-02T02:25:16.482Z,17.40
2017-12-02T02:26:21.054Z,17.40
2017-12-02T02:27:25.763Z,17.40
2017-12-02T02:28:30.483Z,17.40
2017-12-02T02:29:35.073Z,17.40
2017-12-02T02:30:39.865Z,17.40
2017-12-02T02:31:44.494Z,17.40
2017-12-02T02:32:49.445Z,17.40
2017-12-02T02:33:54.567Z,17.40
2017-12-02T02:34:59.304Z,17.40
2017-12-02T02:36:04.036Z,17.40
2017-12-02T02:37:08.864Z,17.40
2017-12-02T02:38:13.596Z,17.40
2017-12-02T02:39:18.270Z,17.40
2017-12-02T02:40:22.825Z,17.40
2017-12-02T02:41:27.443Z,17.40
2017-12-02T02:42:32.037Z,17.40
2017-12-02T02:43:36.787Z,17.40
2017-12-02T02:44:41.630Z,17.40
2017-12-02T02:45:46.276Z,17.40
2017-12-02T02:46:50.967Z,17.40
2017-12-02T02:47:55.657Z,17.40
2017-12-02T02:49:00.261Z,17.40
2017-12-02T02:50:04.857Z,17.40
2017-12-02T02:51:09.639Z,17.40
2017-12-02T02:52:14.418Z,17.40
2017-12-02T02:53:19.216Z,17.40
2017-12-02T02:54:23.933Z,17.40
2017-12-02T02:55:28.708Z,17.40
2017-12-02T02:56:33.338Z,17.40
2017-12-02T02:57:37.984Z,17.40
2017-12-02T02:58:42.455Z,17.40
2017-12-02T02:59:47.211Z,17.40
2017-12-02T03:00:51.819Z,17.40
2017-12-02T03:01:56.473Z,17.40
2017-12-02T03:03:01.042Z,17.40
2017-12-02T03:04:05.547Z,17.40
2017-12-02T03:05:10.222Z,17.40
2017-12-02T03:06:14.998Z,17.40
2017-12-02T03:07:19.507Z,17.40
2017-12-02T03:08:24.197Z,17.40
2017-12-02T03:09:28.805Z,17.40
2017-12-02T03:10:33.342Z,17.40
2017-12-02T03:11:37.969Z,17.40
2017-12-02T03:12:42.643Z,17.40
2017-12-02T03:13:47.434Z,17.40
2017-12-02T03:14:52.161Z,17.40
2017-12-02T03:15:56.870Z,17.40
2017-12-02T03:17:01.549Z,17.40
2017-12-02T03:18:06.161Z,17.40
2017-12-02T03:19:10.833Z,17.40
2017-12-02T03:20:15.459Z,17.40
2017-12-02T03:21:20.245Z,17.40
2017-12-02T03:22:24.962Z,17.40
2017-12-02T03:23:29.504Z,17.40
2017-12-02T03:24:34.048Z,17.40
2017-12-02T03:25:38.596Z,17.40
2017-12-02T03:26:43.380Z,17.40
2017-12-02T03:27:47.841Z,17.40
2017-12-02T03:28:52.527Z,17.40
2017-12-02T03:29:57.144Z,17.40
2017-12-02T03:31:01.951Z,17.40
2017-12-02T03:32:06.571Z,17.40
2017-12-02T03:33:11.047Z,17.40
2017-12-02T03:34:15.640Z,17.40
2017-12-02T03:35:20.310Z,17.40
2017-12-02T03:36:24.932Z,17.40
2017-12-02T03:37:29.690Z,17.40
2017-12-02T03:38:34.306Z,17.40
2017-12-02T03:39:38.920Z,17.40
2017-12-02T03:40:43.583Z,17.40
2017-12-02T03:41:48.232Z,17.40
2017-12-02T03:42:52.766Z,17.40
2017-12-02T03:43:57.506Z,17.40
2017-12-02T03:45:02.216Z,17.40
2017-12-02T03:46:06.822Z,17.30
2017-12-02T03:47:11.651Z,17.40
2017-12-02T03:48:16.349Z,17.40
2017-12-02T03:49:21.064Z,17.40
2017-12-02T03:50:25.674Z,17.40
2017-12-02T03:51:30.461Z,17.40
2017-12-02T03:52:35.267Z,17.40
2017-12-02T03:53:40.089Z,17.40
2017-12-02T03:54:44.645Z,17.40
2017-12-02T03:55:49.237Z,17.40
2017-12-02T03:56:53.840Z,17.30
2017-12-02T03:57:58.577Z,17.30
2017-12-02T03:59:03.354Z,17.30
2017-12-02T04:00:08.053Z,17.30
2017-12-02T04:01:12.724Z,17.40
2017-12-02T04:02:17.513Z,17.30
2017-12-02T04:03:22.349Z,17.30
2017-12-02T04:04:27.023Z,17.30
2017-12-02T04:05:31.849Z,17.30
2017-12-02T04:06:36.396Z,17.30
2017-12-02T04:07:41.027Z,17.30
2017-12-02T04:08:45.855Z,17.30
2017-12-02T04:09:50.420Z,17.30
2017-12-02T04:10:55.179Z,17.30
2017-12-02T04:11:59.879Z,17.30
2017-12-02T04:13:04.494Z,17.30
2017-12-02T04:14:09.274Z,17.30
2017-12-02T04:15:14.660Z,17.30
2017-12-02T04:16:19.345Z,17.30
2017-12-02T04:17:23.962Z,17.30
2017-12-02T04:18:28.538Z,17.40
2017-12-02T04:19:33.100Z,17.40
2017-12-02T04:20:37.893Z,17.40
2017-12-02T04:21:42.439Z,17.30
2017-12-02T04:22:47.115Z,17.40
2017-12-02T04:23:51.656Z,17.40
2017-12-02T04:24:56.288Z,17.30
2017-12-02T04:26:01.000Z,17.30
2017-12-02T04:27:05.707Z,17.30
2017-12-02T04:28:10.433Z,17.30
2017-12-02T04:29:14.918Z,17.30
2017-12-02T04:30:19.637Z,17.30
2017-12-02T04:31:36.278Z,17.30
2017-12-02T04:32:41.111Z,17.30
2017-12-02T04:33:45.985Z,17.30
2017-12-02T04:34:50.672Z,17.30
2017-12-02T04:35:55.392Z,17.30
2017-12-02T04:37:00.094Z,17.30
2017-12-02T04:38:04.887Z,17.30
2017-12-02T04:39:09.605Z,17.40
2017-12-02T04:40:14.217Z,17.30
2017-12-02T04:41:18.979Z,17.30
2017-12-02T04:42:23.958Z,17.40
2017-12-02T04:43:28.661Z,17.30
2017-12-02T04:44:33.378Z,17.30
2017-12-02T04:45:38.011Z,17.40
2017-12-02T04:46:42.731Z,17.40
2017-12-02T04:47:47.306Z,17.30
2017-12-02T04:48:52.074Z,17.30
2017-12-02T04:49:56.782Z,17.30
2017-12-02T04:51:01.538Z,17.30
2017-12-02T04:52:06.795Z,17.40
2017-12-02T04:53:11.565Z,17.30
2017-12-02T04:54:16.355Z,17.30
2017-12-02T04:55:21.174Z,17.30
2017-12-02T04:56:25.760Z,17.30
2017-12-02T04:57:30.519Z,17.40
2017-12-02T04:58:35.415Z,17.40
2017-12-02T04:59:40.190Z,17.30
2017-12-02T05:00:44.776Z,17.30
2017-12-02T05:01:49.568Z,17.30
2017-12-02T05:02:54.296Z,17.30
2017-12-02T05:03:59.012Z,17.30
2017-12-02T05:05:03.760Z,17.30
2017-12-02T05:06:08.389Z,17.30
2017-12-02T05:07:13.015Z,17.30
2017-12-02T05:08:17.731Z,17.30
2017-12-02T05:09:22.603Z,17.30
2017-12-02T05:10:28.419Z,17.30
2017-12-02T05:11:33.149Z,17.30
2017-12-02T05:12:37.878Z,17.30
2017-12-02T05:13:42.486Z,17.30
2017-12-02T05:14:47.193Z,17.30
2017-12-02T05:15:51.807Z,17.30
2017-12-02T05:16:56.554Z,17.30
2017-12-02T05:18:01.140Z,17.30
2017-12-02T05:19:06.003Z,17.30
2017-12-02T05:20:10.751Z,17.30
2017-12-02T05:21:15.572Z,17.30
2017-12-02T05:22:20.171Z,17.30
2017-12-02T05:23:24.898Z,17.30
2017-12-02T05:24:29.713Z,17.30
2017-12-02T05:25:34.466Z,17.30
2017-12-02T05:26:39.539Z,17.30
2017-12-02T05:27:44.361Z,17.30
2017-12-02T05:28:49.262Z,17.30
2017-12-02T05:29:53.922Z,17.30
2017-12-02T05:30:58.611Z,17.30
2017-12-02T05:32:03.397Z,17.30
2017-12-02T05:33:08.165Z,17.30
2017-12-02T05:34:12.952Z,17.30
2017-12-02T05:35:17.653Z,17.30
2017-12-02T05:36:22.522Z,17.30
2017-12-02T05:37:27.234Z,17.30
2017-12-02T05:38:31.924Z,17.30
2017-12-02T05:39:36.641Z,17.30
2017-12-02T05:40:41.352Z,17.30
2017-12-02T05:41:46.044Z,17.30
2017-12-02T05:42:50.725Z,17.30
2017-12-02T05:43:55.578Z,17.30
2017-12-02T05:45:00.974Z,17.30
2017-12-02T05:46:05.714Z,17.30
2017-12-02T05:47:10.486Z,17.30
2017-12-02T05:48:15.115Z,17.30
2017-12-02T05:49:20.076Z,17.30
2017-12-02T05:50:24.885Z,17.30
2017-12-02T05:51:29.636Z,17.30
2017-12-02T05:52:34.275Z,17.20
2017-12-02T05:53:39.047Z,17.20
2017-12-02T05:54:43.823Z,17.20
2017-12-02T05:55:48.460Z,17.30
2017-12-02T05:56:53.084Z,17.20
2017-12-02T05:57:57.899Z,17.20
2017-12-02T05:59:02.734Z,17.20
2017-12-02T06:00:07.454Z,17.30
2017-12-02T06:01:12.154Z,17.20
2017-12-02T06:02:17.015Z,17.30
2017-12-02T06:03:21.749Z,17.30
2017-12-02T06:04:26.432Z,17.30
2017-12-02T06:05:31.080Z,17.30
2017-12-02T06:06:35.926Z,17.30
2017-12-02T06:07:40.708Z,17.30
2017-12-02T06:08:46.460Z,17.40
2017-12-02T06:09:51.163Z,17.40
2017-12-02T06:10:55.913Z,17.50
2017-12-02T06:12:00.702Z,17.50
2017-12-02T06:13:05.390Z,17.50
2017-12-02T06:14:10.247Z,17.50
2017-12-02T06:15:14.965Z,17.60
2017-12-02T06:16:19.752Z,17.60
2017-12-02T06:17:24.815Z,17.60
2017-12-02T06:18:29.878Z,17.60
2017-12-02T06:19:34.550Z,17.70
2017-12-02T06:20:39.401Z,17.70
2017-12-02T06:21:44.055Z,17.70
2017-12-02T06:22:48.846Z,17.70
2017-12-02T06:23:53.780Z,17.70
2017-12-02T06:24:58.703Z,17.70
2017-12-02T06:26:03.480Z,17.70
2017-12-02T06:27:08.763Z,17.70
2017-12-02T06:28:13.743Z,17.70
2017-12-02T06:29:18.354Z,17.80
2017-12-02T06:30:23.185Z,17.80
2017-12-02T06:31:28.017Z,17.80
2017-12-02T06:32:32.798Z,17.80
2017-12-02T06:33:37.497Z,17.80
2017-12-02T06:34:42.265Z,17.80
2017-12-02T06:35:47.079Z,17.80
2017-12-02T06:36:51.724Z,17.80
2017-12-02T06:37:56.463Z,17.90
2017-12-02T06:39:01.092Z,17.90
2017-12-02T06:40:05.651Z,17.90
2017-12-02T06:41:10.402Z,17.90
2017-12-02T06:42:14.959Z,17.90
2017-12-02T06:43:19.668Z,17.90
2017-12-02T06:44:24.384Z,17.90
2017-12-02T06:45:29.107Z,17.80
2017-12-02T06:46:33.946Z,17.80
2017-12-02T06:47:38.632Z,17.80
2017-12-02T06:48:43.346Z,17.70
2017-12-02T06:49:48.059Z,17.70
2017-12-02T06:50:52.932Z,17.70
2017-12-02T06:51:57.646Z,17.70
2017-12-02T06:53:02.496Z,17.70
2017-12-02T06:54:07.068Z,17.70
2017-12-02T06:55:12.455Z,17.70
2017-12-02T06:56:17.450Z,17.70
2017-12-02T06:57:22.400Z,17.70
2017-12-02T06:58:27.147Z,17.70
2017-12-02T06:59:31.837Z,17.60
2017-12-02T07:00:36.436Z,17.60
2017-12-02T07:01:41.200Z,17.60
2017-12-02T07:02:46.017Z,17.50
2017-12-02T07:03:50.964Z,17.50
2017-12-02T07:04:55.826Z,17.50
2017-12-02T07:06:00.636Z,17.50
2017-12-02T07:07:05.363Z,17.50
2017-12-02T07:08:10.066Z,17.50
2017-12-02T07:09:14.827Z,17.50
2017-12-02T07:10:19.570Z,17.50
2017-12-02T07:11:24.337Z,17.50
2017-12-02T07:12:29.142Z,17.50
2017-12-02T07:13:33.991Z,17.60
2017-12-02T07:14:38.795Z,17.60
2017-12-02T07:15:43.589Z,17.60
2017-12-02T07:16:49.487Z,17.60
2017-12-02T07:17:54.120Z,17.60
2017-12-02T07:18:58.927Z,17.60
2017-12-02T07:20:03.919Z,17.60
2017-12-02T07:21:08.801Z,17.60
2017-12-02T07:22:13.384Z,17.60
2017-12-02T07:23:18.010Z,17.60
2017-12-02T07:24:22.729Z,17.60
2017-12-02T07:25:27.782Z,17.60
2017-12-02T07:26:32.602Z,17.60
2017-12-02T07:27:37.347Z,17.70
2017-12-02T07:28:42.155Z,17.70
2017-12-02T07:29:46.995Z,17.70
2017-12-02T07:30:51.746Z,17.70
2017-12-02T07:31:56.598Z,17.70
2017-12-02T07:33:01.520Z,17.70
2017-12-02T07:34:06.469Z,17.70
2017-12-02T07:35:11.255Z,17.70
2017-12-02T07:36:16.002Z,17.70
2017-12-02T07:37:20.744Z,17.70
2017-12-02T07:38:25.435Z,17.70
2017-12-02T07:39:30.285Z,17.70
2017-12-02T07:40:35.001Z,17.70
2017-12-02T07:41:39.804Z,17.70
2017-12-02T07:42:44.671Z,17.70
2017-12-02T07:43:50.034Z,17.70
2017-12-02T07:44:54.696Z,17.80
2017-12-02T07:45:59.333Z,17.80
2017-12-02T07:47:04.232Z,17.80
2017-12-02T07:48:08.893Z,17.90
2017-12-02T07:49:13.805Z,17.90
2017-12-02T07:50:18.614Z,17.90
2017-12-02T07:51:23.395Z,18.00
2017-12-02T07:52:28.420Z,18.00
2017-12-02T07:53:33.527Z,18.00
2017-12-02T07:54:38.270Z,18.00
2017-12-02T07:55:43.091Z,18.00
2017-12-02T07:56:48.046Z,17.90
2017-12-02T07:57:52.819Z,17.90
2017-12-02T07:58:58.837Z,17.90
2017-12-02T08:00:03.500Z,17.90
2017-12-02T08:01:08.437Z,17.90
2017-12-02T08:02:14.197Z,17.90
2017-12-02T08:03:18.763Z,17.90
2017-12-02T08:04:23.815Z,17.90
2017-12-02T08:05:28.502Z,17.90
2017-12-02T08:06:33.297Z,17.90
2017-12-02T08:07:38.028Z,17.90
2017-12-02T08:08:42.586Z,17.90
2017-12-02T08:09:47.285Z,17.90
2017-12-02T08:10:52.014Z,17.90
2017-12-02T08:11:56.718Z,18.00
2017-12-02T08:13:01.451Z,18.00
2017-12-02T08:14:06.136Z,18.00
2017-12-02T08:15:11.034Z,18.00
2017-12-02T08:16:15.773Z,18.00
2017-12-02T08:17:20.362Z,17.90
2017-12-02T08:18:25.097Z,18.00
2017-12-02T08:19:30.065Z,18.00
2017-12-02T08:20:34.869Z,17.90
2017-12-02T08:21:39.845Z,17.90
2017-12-02T08:22:44.400Z,17.90
2017-12-02T08:23:49.208Z,17.90
2017-12-02T08:24:54.006Z,17.90
2017-12-02T08:25:58.969Z,17.90
2017-12-02T08:27:05.217Z,17.90
2017-12-02T08:28:09.918Z,17.80
2017-12-02T08:29:14.505Z,17.80
2017-12-02T08:30:19.208Z,17.80
2017-12-02T08:31:23.808Z,17.80
2017-12-02T08:32:28.737Z,17.80
2017-12-02T08:33:33.493Z,17.80
2017-12-02T08:34:38.195Z,17.80
2017-12-02T08:35:42.998Z,17.80
2017-12-02T08:36:47.912Z,17.80
2017-12-02T08:37:52.742Z,17.80
2017-12-02T08:38:57.445Z,17.80
2017-12-02T08:40:02.444Z,17.80
2017-12-02T08:41:07.346Z,17.80
2017-12-02T08:42:12.056Z,17.90
2017-12-02T08:43:17.118Z,18.00
2017-12-02T08:44:21.794Z,18.00
2017-12-02T08:45:26.846Z,18.00
2017-12-02T08:46:31.767Z,18.00
2017-12-02T08:47:36.414Z,17.90
2017-12-02T08:48:41.360Z,17.90
2017-12-02T08:49:46.113Z,17.80
2017-12-02T08:50:50.847Z,17.80
2017-12-02T08:51:55.473Z,17.70
2017-12-02T08:53:00.151Z,17.70
2017-12-02T08:54:04.860Z,17.70
2017-12-02T08:55:09.610Z,17.70
2017-12-02T08:56:14.851Z,17.60
2017-12-02T08:57:19.541Z,17.60
2017-12-02T08:58:24.435Z,17.60
2017-12-02T08:59:29.108Z,17.60
2017-12-02T09:00:33.792Z,17.60
2017-12-02T09:01:38.730Z,17.60
2017-12-02T09:02:43.546Z,17.60
2017-12-02T09:03:48.223Z,17.60
2017-12-02T09:04:52.812Z,17.60
2017-12-02T09:05:57.356Z,17.60
2017-12-02T09:07:02.294Z,17.60
2017-12-02T09:08:07.174Z,17.60
2017-12-02T09:09:11.932Z,17.60
2017-12-02T09:10:16.498Z,17.60
2017-12-02T09:11:21.054Z,17.60
2017-12-02T09:12:25.947Z,17.60
2017-12-02T09:13:30.826Z,17.50
2017-12-02T09:14:35.756Z,17.50
2017-12-02T09:15:40.348Z,17.50
2017-12-02T09:16:45.139Z,17.50
2017-12-02T09:17:49.952Z,17.50
2017-12-02T09:18:54.611Z,17.50
2017-12-02T09:19:59.502Z,17.50
2017-12-02T09:21:04.311Z,17.60
2017-12-02T09:22:09.142Z,17.60
2017-12-02T09:23:13.924Z,17.50
2017-12-02T09:24:18.651Z,17.50
2017-12-02T09:25:23.486Z,17.50
2017-12-02T09:26:28.180Z,17.50
2017-12-02T09:27:32.820Z,17.50
2017-12-02T09:28:37.643Z,17.50
2017-12-02T09:29:42.433Z,17.50
2017-12-02T09:30:47.294Z,17.50
2017-12-02T09:31:52.073Z,17.50
2017-12-02T09:32:56.655Z,17.50
2017-12-02T09:34:01.390Z,17.50
2017-12-02T09:35:06.244Z,17.50
2017-12-02T09:36:10.983Z,17.50
2017-12-02T09:37:15.599Z,17.50
2017-12-02T09:38:20.577Z,17.50
2017-12-02T09:39:25.891Z,17.50
2017-12-02T09:40:30.675Z,17.50
2017-12-02T09:41:35.353Z,17.50
2017-12-02T09:42:40.199Z,17.50
2017-12-02T09:43:44.863Z,17.50
2017-12-02T09:44:49.589Z,17.50
2017-12-02T09:45:54.321Z,17.50
2017-12-02T09:46:59.193Z,17.50
2017-12-02T09:48:03.915Z,17.50
2017-12-02T09:49:08.603Z,17.50
2017-12-02T09:50:13.363Z,17.50
2017-12-02T09:51:18.112Z,17.50
2017-12-02T09:52:22.653Z,17.50
2017-12-02T09:53:27.349Z,17.60
2017-12-02T09:54:31.913Z,17.60
2017-12-02T09:55:36.596Z,17.60
2017-12-02T09:56:41.274Z,17.60
2017-12-02T09:57:45.860Z,17.70
2017-12-02T09:58:50.533Z,17.70
2017-12-02T09:59:55.091Z,17.70
2017-12-02T10:00:59.708Z,17.70
2017-12-02T10:02:04.423Z,17.70
2017-12-02T10:03:09.172Z,17.70
2017-12-02T10:04:13.815Z,17.70
2017-12-02T10:05:18.576Z,17.70
2017-12-02T10:06:23.216Z,17.70
2017-12-02T10:07:27.878Z,17.70
2017-12-02T10:08:32.452Z,17.60
2017-12-02T10:09:37.125Z,17.60
2017-12-02T10:10:41.976Z,17.60
2017-12-02T10:11:46.946Z,17.60
2017-12-02T10:12:51.750Z,17.60
2017-12-02T10:13:56.369Z,17.60
2017-12-02T10:15:00.928Z,17.50
2017-12-02T10:16:05.627Z,17.50
2017-12-02T10:17:10.329Z,17.50
2017-12-02T10:18:14.960Z,17.50
2017-12-02T10:19:19.583Z,17.50
2017-12-02T10:20:24.166Z,17.50
2017-12-02T10:21:28.998Z,17.50
2017-12-02T10:22:33.584Z,17.50
2017-12-02T10:23:38.198Z,17.50
2017-12-02T10:24:42.856Z,17.50
2017-12-02T10:25:47.576Z,17.50
2017-12-02T10:26:52.173Z,17.50
2017-12-02T10:27:56.745Z,17.50
2017-12-02T10:29:01.614Z,17.50
2017-12-02T10:30:06.180Z,17.50
2017-12-02T10:31:10.771Z,17.50
2017-12-02T10:32:15.544Z,17.50
2017-12-02T10:33:20.190Z,17.50
2017-12-02T10:34:24.909Z,17.50
2017-12-02T10:35:29.551Z,17.50
2017-12-02T10:36:34.246Z,17.40
2017-12-02T10:37:38.851Z,17.40
2017-12-02T10:38:44.716Z,17.40
2017-12-02T10:39:49.584Z,17.40
2017-12-02T10:40:54.253Z,17.40
2017-12-02T10:41:58.876Z,17.40
2017-12-02T10:43:03.445Z,17.40
2017-12-02T10:44:08.184Z,17.40
2017-12-02T10:45:12.813Z,17.40
2017-12-02T10:46:17.686Z,17.40
2017-12-02T10:47:22.275Z,17.40
2017-12-02T10:48:26.997Z,17.40
2017-12-02T10:49:31.762Z,17.40
2017-12-02T10:50:36.500Z,17.40
2017-12-02T10:51:41.177Z,17.40
2017-12-02T10:52:45.762Z,17.40
2017-12-02T10:53:50.525Z,17.40
2017-12-02T10:54:55.203Z,17.40
2017-12-02T10:56:00.012Z,17.30
2017-12-02T10:57:04.868Z,17.40
2017-12-02T10:58:09.935Z,17.40
2017-12-02T10:59:14.923Z,17.40
2017-12-02T11:00:19.718Z,17.40
2017-12-02T11:01:24.638Z,17.40
2017-12-02T11:02:29.588Z,17.40
2017-12-02T11:03:34.276Z,17.40
2017-12-02T11:04:39.157Z,17.50
2017-12-02T11:05:44.011Z,17.40
2017-12-02T11:06:48.866Z,17.50
2017-12-02T11:07:53.614Z,17.40
2017-12-02T11:08:58.372Z,17.50
2017-12-02T11:10:03.468Z,17.50
2017-12-02T11:11:08.186Z,17.50
2017-12-02T11:12:12.996Z,17.40
2017-12-02T11:13:17.922Z,17.40
2017-12-02T11:14:22.562Z,17.50
2017-12-02T11:15:27.173Z,17.50
2017-12-02T11:16:31.905Z,17.50
2017-12-02T11:17:36.564Z,17.50
2017-12-02T11:18:41.407Z,17.50
2017-12-02T11:19:46.180Z,17.40
2017-12-02T11:20:51.046Z,17.40
2017-12-02T11:21:55.786Z,17.40
2017-12-02T11:23:00.565Z,17.40
2017-12-02T11:24:05.426Z,17.20
2017-12-02T11:25:10.032Z,16.90
2017-12-02T11:26:14.658Z,16.60
2017-12-02T11:27:19.361Z,16.30
2017-12-02T11:28:24.313Z,16.20
2017-12-02T11:29:29.016Z,16.30
2017-12-02T11:30:33.701Z,16.40
2017-12-02T11:31:38.890Z,16.50
2017-12-02T11:32:44.412Z,16.50
2017-12-02T11:33:49.216Z,16.60
2017-12-02T11:34:54.003Z,16.70
2017-12-02T11:35:58.631Z,16.80
2017-12-02T11:37:03.466Z,16.90
2017-12-02T11:38:08.277Z,17.00
2017-12-02T11:39:13.036Z,17.00
2017-12-02T11:40:17.857Z,17.10
2017-12-02T11:41:22.720Z,17.20
2017-12-02T11:42:27.679Z,17.30
2017-12-02T11:43:32.492Z,17.40
2017-12-02T11:44:37.543Z,17.40
2017-12-02T11:45:42.161Z,17.50
2017-12-02T11:46:46.935Z,17.50
2017-12-02T11:47:51.624Z,17.60
2017-12-02T11:48:56.297Z,17.70
2017-12-02T11:50:01.217Z,17.70
2017-12-02T11:51:06.080Z,17.70
2017-12-02T11:52:10.824Z,17.70
2017-12-02T11:53:15.497Z,17.80
2017-12-02T11:54:20.653Z,17.80
2017-12-02T11:55:25.431Z,17.80
2017-12-02T11:56:30.082Z,17.80
2017-12-02T11:57:34.689Z,17.80
2017-12-02T11:58:39.308Z,17.90
2017-12-02T11:59:43.984Z,17.90
2017-12-02T12:00:48.888Z,17.90
2017-12-02T12:01:53.455Z,18.00
2017-12-02T12:02:58.066Z,18.00
2017-12-02T12:04:02.671Z,18.00
2017-12-02T12:05:07.388Z,17.90
2017-12-02T12:06:11.928Z,17.90
2017-12-02T12:07:16.561Z,17.90
2017-12-02T12:08:21.293Z,17.90
2017-12-02T12:09:25.911Z,17.90
2017-12-02T12:10:30.507Z,17.90
2017-12-02T12:11:35.155Z,17.90
2017-12-02T12:12:39.799Z,18.00
2017-12-02T12:13:44.649Z,18.00
2017-12-02T12:14:51.384Z,18.00
2017-12-02T12:15:56.233Z,18.00
2017-12-02T12:17:00.816Z,18.00
2017-12-02T12:18:05.506Z,18.00
2017-12-02T12:19:10.043Z,18.00
2017-12-02T12:20:14.851Z,17.90
2017-12-02T12:21:19.579Z,17.90
2017-12-02T12:22:24.171Z,17.90
2017-12-02T12:23:28.882Z,17.80
2017-12-02T12:24:33.534Z,17.80
2017-12-02T12:25:38.163Z,17.90
2017-12-02T12:26:42.896Z,17.90
2017-12-02T12:27:47.483Z,17.90
2017-12-02T12:28:52.036Z,17.90
2017-12-02T12:29:56.841Z,17.90
2017-12-02T12:31:01.498Z,17.90
2017-12-02T12:32:06.275Z,17.90
2017-12-02T12:33:11.068Z,18.00
2017-12-02T12:34:15.704Z,18.00
2017-12-02T12:35:20.411Z,18.00
2017-12-02T12:36:25.224Z,18.00
2017-12-02T12:37:29.908Z,18.00
2017-12-02T12:38:34.631Z,18.00
2017-12-02T12:39:39.384Z,18.00
2017-12-02T12:40:44.887Z,18.00
2017-12-02T12:41:49.673Z,18.00
2017-12-02T12:42:54.430Z,18.00
2017-12-02T12:43:59.028Z,18.00
2017-12-02T12:45:03.911Z,18.00
2017-12-02T12:46:08.729Z,18.00
2017-12-02T12:47:13.492Z,18.00
2017-12-02T12:48:18.216Z,17.90
2017-12-02T12:49:23.059Z,17.90
2017-12-02T12:50:27.858Z,18.00
2017-12-02T12:51:32.563Z,17.90
2017-12-02T12:52:37.231Z,17.90
2017-12-02T12:53:42.098Z,17.90
2017-12-02T12:54:46.695Z,17.90
2017-12-02T12:55:51.755Z,17.80
2017-12-02T12:56:58.998Z,17.80
2017-12-02T12:58:04.028Z,17.70
2017-12-02T12:59:08.844Z,17.60
2017-12-02T13:00:13.443Z,17.40
2017-12-02T13:01:18.075Z,17.30
2017-12-02T13:02:22.733Z,17.30
2017-12-02T13:03:27.359Z,17.30
2017-12-02T13:04:32.632Z,17.30
2017-12-02T13:05:37.560Z,17.30
2017-12-02T13:06:42.230Z,17.40
2017-12-02T13:07:46.823Z,17.40
2017-12-02T13:08:51.521Z,17.40
2017-12-02T13:09:56.299Z,17.50
2017-12-02T13:11:00.835Z,17.50
2017-12-02T13:12:05.505Z,17.50
2017-12-02T13:13:10.387Z,17.60
2017-12-02T13:14:15.039Z,17.60
2017-12-02T13:15:19.756Z,17.60
2017-12-02T13:16:24.484Z,17.60
2017-12-02T13:17:29.180Z,17.60
2017-12-02T13:18:33.837Z,17.70
2017-12-02T13:19:38.542Z,17.60
2017-12-02T13:20:43.354Z,17.60
2017-12-02T13:21:48.244Z,17.60
2017-12-02T13:22:53.191Z,17.60
2017-12-02T13:23:57.910Z,17.70
2017-12-02T13:25:02.612Z,17.70
2017-12-02T13:26:07.331Z,17.70
2017-12-02T13:27:12.121Z,17.70
2017-12-02T13:28:16.959Z,17.70
2017-12-02T13:29:21.761Z,17.70
2017-12-02T13:30:26.537Z,17.70
2017-12-02T13:31:31.402Z,17.70
2017-12-02T13:32:36.027Z,17.70
2017-12-02T13:33:40.880Z,17.70
2017-12-02T13:34:45.469Z,17.70
2017-12-02T13:35:50.134Z,17.70
2017-12-02T13:36:54.901Z,17.70
2017-12-02T13:37:59.571Z,17.70
2017-12-02T13:39:04.461Z,17.70
2017-12-02T13:40:09.103Z,17.70
2017-12-02T13:41:13.816Z,17.70
2017-12-02T13:42:18.557Z,17.70
2017-12-02T13:43:23.439Z,17.70
2017-12-02T13:44:28.109Z,17.70
2017-12-02T13:45:32.681Z,17.70
2017-12-02T13:46:37.577Z,17.70
2017-12-02T13:47:42.391Z,17.70
2017-12-02T13:48:47.229Z,17.70
2017-12-02T13:49:51.920Z,17.70
2017-12-02T13:50:56.677Z,17.70
2017-12-02T13:52:01.425Z,17.70
2017-12-02T13:53:06.044Z,17.70
2017-12-02T13:54:10.802Z,17.70